Belmore, Ohio
Current Conditions -  °F | °C
As of 9:53 PM on Monday 20 Oct 2014 (Local Time) from KFDY Reporting Station
Haze Haze  
Wind Chill: 51°   Ceiling: 7500
Heat Index: 51°   Visibility: 4mi
Dew Point: 49°   Wind: 5mph
Humidity: 92%   Direction: 280°W
Pressure: 29.87"   Gusts: NA
Location:  41.15°N, 83.94°W
Report Text: KFDY 210153Z AUTO 28004KT 4SM BR BKN075 11/09 A2987 RMK AO2 SLP111 T01060094
Loading
Personal Weather Stations






























Interactive Weather Map New forecast layout! Learn more

10-Day Weather Forecast

Advertisements
Track Severe Weather on mobile